createdAt,value
2018-07-27T00:00:36.889Z,101717.29
2018-07-27T00:03:07.515Z,101720.41
2018-07-27T00:05:37.534Z,101724.00
2018-07-27T00:08:08.216Z,101725.02
2018-07-27T00:10:38.238Z,101723.55
2018-07-27T00:13:08.973Z,101722.32
2018-07-27T00:15:38.989Z,101726.16
2018-07-27T00:18:09.104Z,101722.52
2018-07-27T00:20:41.275Z,101729.03
2018-07-27T00:23:17.157Z,101723.07
2018-07-27T00:25:47.353Z,101724.23
2018-07-27T00:28:19.622Z,101725.57
2018-07-27T00:30:51.626Z,101723.61
2018-07-27T00:33:24.873Z,101718.23
2018-07-27T00:35:55.101Z,101720.47
2018-07-27T00:38:29.620Z,101714.52
2018-07-27T00:40:59.949Z,101710.41
2018-07-27T00:43:34.192Z,101710.54
2018-07-27T00:46:04.493Z,101712.05
2018-07-27T00:48:34.706Z,101710.81
2018-07-27T00:51:04.878Z,101709.06
2018-07-27T00:53:34.901Z,101709.44
2018-07-27T00:56:05.216Z,101713.81
2018-07-27T00:58:39.886Z,101713.81
2018-07-27T01:01:10.629Z,101709.47
2018-07-27T01:03:44.835Z,101712.82
2018-07-27T01:06:14.901Z,101710.11
2018-07-27T01:08:44.970Z,101710.22
2018-07-27T01:11:15.197Z,101705.36
2018-07-27T01:13:45.272Z,101703.03
2018-07-27T01:16:15.347Z,101707.13
2018-07-27T01:18:45.085Z,101705.79
2018-07-27T01:21:16.486Z,101701.69
2018-07-27T01:23:47.014Z,101698.20
2018-07-27T01:26:17.207Z,101700.43
2018-07-27T01:28:47.168Z,101701.15
2018-07-27T01:31:17.374Z,101703.30
2018-07-27T01:33:47.409Z,101696.94
2018-07-27T01:36:23.468Z,101702.92
2018-07-27T01:38:56.574Z,101695.33
2018-07-27T01:41:31.772Z,101691.47
2018-07-27T01:44:01.831Z,101688.36
2018-07-27T01:46:35.486Z,101684.39
2018-07-27T01:49:09.378Z,101681.38
2018-07-27T01:51:39.351Z,101685.63
2018-07-27T01:54:09.466Z,101684.13
2018-07-27T01:56:39.472Z,101681.25
2018-07-27T01:59:12.638Z,101674.68
2018-07-27T02:01:44.090Z,101670.69
2018-07-27T02:04:18.034Z,101677.14
2018-07-27T02:06:48.153Z,101675.06
2018-07-27T02:09:18.271Z,101678.00
2018-07-27T02:11:48.319Z,101676.42
2018-07-27T02:14:18.386Z,101674.09
2018-07-27T02:16:48.383Z,101669.13
2018-07-27T02:19:22.137Z,101669.02
2018-07-27T02:21:53.642Z,101670.78
2018-07-27T02:24:23.648Z,101667.16
2018-07-27T02:26:53.673Z,101669.42
2018-07-27T02:29:23.889Z,101658.50
2018-07-27T02:31:53.968Z,101662.23
2018-07-27T02:34:24.855Z,101660.59
2018-07-27T02:36:56.582Z,101657.75
2018-07-27T02:39:29.027Z,101660.37
2018-07-27T02:42:00.879Z,101666.94
2018-07-27T02:44:31.096Z,101665.33
2018-07-27T02:47:01.137Z,101667.07
2018-07-27T02:49:31.804Z,101664.25
2018-07-27T02:52:08.454Z,101665.83
2018-07-27T02:54:38.414Z,101661.38
2018-07-27T02:57:08.078Z,101662.75
2018-07-27T02:59:37.670Z,101668.10
2018-07-27T03:02:07.531Z,101657.15
2018-07-27T03:04:37.638Z,101659.42
2018-07-27T03:07:09.654Z,101665.37
2018-07-27T03:09:40.222Z,101663.13
2018-07-27T03:12:10.234Z,101663.52
2018-07-27T03:14:40.250Z,101663.75
2018-07-27T03:17:10.411Z,101658.02
2018-07-27T03:19:40.648Z,101662.01
2018-07-27T03:22:10.889Z,101652.20
2018-07-27T03:24:40.849Z,101655.57
2018-07-27T03:27:10.902Z,101656.83
2018-07-27T03:29:40.575Z,101650.83
2018-07-27T03:32:10.603Z,101653.20
2018-07-27T03:34:40.611Z,101659.17
2018-07-27T03:37:10.626Z,101657.45
2018-07-27T03:39:40.644Z,101650.97
2018-07-27T03:42:10.825Z,101650.61
2018-07-27T03:44:40.842Z,101659.66
2018-07-27T03:47:13.668Z,101657.17
2018-07-27T03:49:43.684Z,101660.39
2018-07-27T03:52:14.085Z,101655.17
2018-07-27T03:54:44.329Z,101652.92
2018-07-27T03:57:14.351Z,101659.12
2018-07-27T03:59:46.507Z,101661.38
2018-07-27T04:02:16.661Z,101658.30
2018-07-27T04:04:49.449Z,101663.89
2018-07-27T04:07:19.518Z,101654.72
2018-07-27T04:09:49.535Z,101661.77
2018-07-27T04:12:25.266Z,101663.16
2018-07-27T04:14:58.475Z,101658.56
2018-07-27T04:17:28.536Z,101664.52
2018-07-27T04:20:00.121Z,101652.36
2018-07-27T04:22:30.138Z,101654.84
2018-07-27T04:25:00.558Z,101657.33
2018-07-27T04:27:33.080Z,101658.17
2018-07-27T04:30:04.021Z,101667.00
2018-07-27T04:32:37.060Z,101664.51
2018-07-27T04:35:09.063Z,101660.27
2018-07-27T04:37:42.865Z,101666.98
2018-07-27T04:40:18.034Z,101671.82
2018-07-27T04:42:48.376Z,101668.70
2018-07-27T04:45:18.702Z,101676.44
2018-07-27T04:47:48.830Z,101675.41
2018-07-27T04:50:19.055Z,101670.83
2018-07-27T04:52:49.211Z,101673.67
2018-07-27T04:55:19.380Z,101671.44
2018-07-27T04:57:51.692Z,101669.55
2018-07-27T05:00:25.411Z,101667.89
2018-07-27T05:02:55.643Z,101672.59
2018-07-27T05:05:31.018Z,101661.03
2018-07-27T05:08:01.043Z,101677.80
2018-07-27T05:10:36.974Z,101673.91
2018-07-27T05:13:08.180Z,101676.58
2018-07-27T05:15:38.213Z,101677.97
2018-07-27T05:18:10.601Z,101679.83
2018-07-27T05:23:40.023Z,101674.93
2018-07-27T05:26:20.724Z,101675.31
2018-07-27T05:29:03.767Z,101670.21
2018-07-27T05:31:51.384Z,101675.17
2018-07-27T05:34:36.090Z,101669.70
2018-07-27T05:37:15.986Z,101676.50
2018-07-27T05:39:52.527Z,101666.12
2018-07-27T05:45:34.989Z,101675.80
2018-07-27T05:48:13.665Z,101671.61
2018-07-27T05:57:09.217Z,101672.27
2018-07-27T06:12:50.167Z,101664.55
2018-07-27T06:54:51.169Z,101656.92
2018-07-27T07:00:28.606Z,101649.98
2018-07-27T07:03:04.878Z,101644.19
2018-07-27T07:05:39.791Z,101639.19
2018-07-27T07:08:16.335Z,101638.13
2018-07-27T07:10:53.942Z,101630.13
2018-07-27T07:13:31.466Z,101638.72
2018-07-27T07:16:17.578Z,101632.32
2018-07-27T07:19:00.450Z,101632.17
2018-07-27T07:21:32.500Z,101636.69
2018-07-27T07:26:45.456Z,101640.66
2018-07-27T07:29:25.549Z,101640.00
2018-07-27T07:32:01.640Z,101637.03
2018-07-27T07:34:50.954Z,101636.11
2018-07-27T07:43:37.598Z,101630.46
2018-07-27T07:46:08.275Z,101630.78
2018-07-27T07:48:39.713Z,101629.09
2018-07-27T07:51:10.686Z,101621.88
2018-07-27T07:53:44.068Z,101617.69
2018-07-27T07:56:14.573Z,101624.28
2018-07-27T07:58:47.192Z,101624.48
2018-07-27T08:01:17.945Z,101630.05
2018-07-27T08:03:48.162Z,101618.75
2018-07-27T08:06:18.951Z,101624.20
2018-07-27T08:08:49.321Z,101629.59
2018-07-27T08:11:19.871Z,101620.78
2018-07-27T08:13:50.616Z,101612.81
2018-07-27T08:16:21.793Z,101615.84
2018-07-27T08:18:52.157Z,101610.70
2018-07-27T08:21:27.508Z,101608.52
2018-07-27T08:23:58.169Z,101610.22
2018-07-27T08:26:46.221Z,101604.61
2018-07-27T08:29:19.304Z,101608.92
2018-07-27T08:31:50.920Z,101604.45
2018-07-27T08:34:26.709Z,101611.07
2018-07-27T08:36:57.169Z,101604.34
2018-07-27T08:39:29.373Z,101612.97
2018-07-27T08:41:59.919Z,101612.06
2018-07-27T08:44:42.360Z,101613.37
2018-07-27T08:47:14.374Z,101601.16
2018-07-27T08:49:44.828Z,101604.86
2018-07-27T08:52:15.069Z,101610.94
2018-07-27T08:54:54.145Z,101607.39
2018-07-27T08:57:24.601Z,101606.04
2018-07-27T08:59:55.382Z,101605.02
2018-07-27T09:02:29.004Z,101608.19
2018-07-27T09:05:01.585Z,101604.73
2018-07-27T09:07:37.324Z,101600.79
2018-07-27T09:10:15.577Z,101606.17
2018-07-27T09:12:49.604Z,101608.64
2018-07-27T09:15:23.976Z,101611.91
2018-07-27T09:17:56.343Z,101601.27
2018-07-27T09:20:36.298Z,101608.66
2018-07-27T09:23:09.670Z,101604.64
2018-07-27T09:25:45.741Z,101606.08
2018-07-27T09:28:19.470Z,101610.90
2018-07-27T09:30:51.608Z,101605.12
2018-07-27T09:33:24.541Z,101602.19
2018-07-27T09:35:59.749Z,101606.66
2018-07-27T09:38:30.685Z,101592.42
2018-07-27T09:41:01.656Z,101593.19
2018-07-27T09:43:32.579Z,101589.60
2018-07-27T09:46:04.765Z,101587.99
2018-07-27T09:48:35.073Z,101600.16
2018-07-27T09:51:10.849Z,101593.61
2018-07-27T09:53:45.058Z,101594.27
2018-07-27T09:56:17.724Z,101594.91
2018-07-27T09:58:53.610Z,101589.98
2018-07-27T10:01:30.479Z,101581.59
2018-07-27T10:04:02.074Z,101582.01
2018-07-27T10:06:34.041Z,101585.61
2018-07-27T10:09:05.761Z,101579.73
2018-07-27T10:11:50.695Z,101580.50
2018-07-27T10:14:21.020Z,101581.71
2018-07-27T10:16:51.656Z,101595.76
2018-07-27T10:19:21.923Z,101590.34
2018-07-27T10:21:53.180Z,101585.98
2018-07-27T10:24:25.294Z,101586.48
2018-07-27T10:26:55.853Z,101576.70
2018-07-27T10:29:26.490Z,101578.78
2018-07-27T10:31:58.542Z,101568.63
2018-07-27T10:34:28.938Z,101573.61
2018-07-27T10:37:02.234Z,101570.61
2018-07-27T10:39:35.296Z,101567.38
2018-07-27T10:42:06.370Z,101564.45
2018-07-27T10:44:37.396Z,101563.09
2018-07-27T10:47:08.601Z,101564.13
2018-07-27T10:49:42.928Z,101561.69
2018-07-27T10:52:15.346Z,101559.34
2018-07-27T10:54:46.685Z,101557.66
2018-07-27T10:57:17.351Z,101560.95
2018-07-27T10:59:48.720Z,101555.94
2018-07-27T11:02:22.542Z,101555.44
2018-07-27T11:04:54.390Z,101549.02
2018-07-27T11:07:25.464Z,101551.45
2018-07-27T11:09:56.439Z,101543.11
2018-07-27T11:12:28.109Z,101551.41
2018-07-27T11:14:59.466Z,101547.59
2018-07-27T11:17:33.169Z,101544.68
2018-07-27T11:20:03.918Z,101538.14
2018-07-27T11:22:35.835Z,101542.19
2018-07-27T11:25:11.405Z,101534.34
2018-07-27T11:27:41.566Z,101533.66
2018-07-27T11:30:14.257Z,101528.67
2018-07-27T11:32:44.915Z,101526.45
2018-07-27T11:35:15.753Z,101519.38
2018-07-27T11:37:45.966Z,101516.28
2018-07-27T11:40:16.312Z,101520.27
2018-07-27T11:42:47.818Z,101525.64
2018-07-27T11:45:18.089Z,101517.33
2018-07-27T11:47:50.828Z,101518.20
2018-07-27T11:50:20.722Z,101528.37
2018-07-27T11:52:51.708Z,101525.61
2018-07-27T11:55:26.491Z,101516.32
2018-07-27T11:57:56.468Z,101520.07
2018-07-27T12:00:26.844Z,101510.23
2018-07-27T12:02:56.617Z,101514.41
2018-07-27T12:05:26.805Z,101514.56
2018-07-27T12:07:59.624Z,101506.11
2018-07-27T12:10:30.218Z,101497.47
2018-07-27T12:13:00.661Z,101507.66
2018-07-27T12:15:32.054Z,101500.23
2018-07-27T12:18:50.301Z,101495.93
2018-07-27T12:34:39.769Z,101484.54
2018-07-27T12:37:45.240Z,101482.97
2018-07-27T12:45:46.091Z,101487.28
2018-07-27T12:48:46.935Z,101483.52
2018-07-27T12:57:58.401Z,101469.34
2018-07-27T13:04:18.262Z,101466.09
2018-07-27T13:13:23.710Z,101460.03
2018-07-27T13:16:29.611Z,101449.66
2018-07-27T13:19:03.567Z,101440.87
2018-07-27T13:21:43.041Z,101446.03
2018-07-27T13:24:19.337Z,101440.70
2018-07-27T13:27:02.434Z,101427.94
2018-07-27T13:29:49.539Z,101429.48
2018-07-27T13:32:30.219Z,101423.45
2018-07-27T13:35:18.872Z,101435.34
2018-07-27T13:38:05.884Z,101425.52
2018-07-27T13:40:47.744Z,101426.20
2018-07-27T13:43:31.549Z,101425.30
2018-07-27T13:46:10.626Z,101420.14
2018-07-27T13:55:03.991Z,101404.88
2018-07-27T13:57:40.724Z,101405.12
2018-07-27T14:00:16.980Z,101404.11
2018-07-27T14:02:47.525Z,101410.63
2018-07-27T14:05:17.972Z,101401.53
2018-07-27T14:07:49.410Z,101405.66
2018-07-27T14:10:19.834Z,101399.45
2018-07-27T14:12:51.082Z,101403.91
2018-07-27T14:15:21.664Z,101397.98
2018-07-27T14:17:57.316Z,101401.28
2018-07-27T14:20:37.497Z,101392.46
2018-07-27T14:23:13.235Z,101394.56
2018-07-27T14:25:47.284Z,101406.31
2018-07-27T14:28:25.908Z,101396.45
2018-07-27T14:31:01.835Z,101392.02
2018-07-27T14:33:33.915Z,101392.84
2018-07-27T14:36:05.740Z,101386.81
2018-07-27T14:38:51.789Z,101390.26
2018-07-27T14:47:06.741Z,101389.27
2018-07-27T14:49:43.842Z,101385.78
2018-07-27T14:52:26.205Z,101377.67
2018-07-27T14:55:02.357Z,101369.03
2018-07-27T15:00:52.145Z,101376.31
2018-07-27T15:03:37.008Z,101363.00
2018-07-27T15:15:21.023Z,101359.78
2018-07-27T15:18:18.922Z,101357.50
2018-07-27T15:24:46.242Z,101344.42
2018-07-27T15:27:33.219Z,101358.39
2018-07-27T15:30:36.652Z,101347.33
2018-07-27T15:33:24.569Z,101355.14
2018-07-27T15:36:21.332Z,101359.44
2018-07-27T15:39:04.291Z,101356.19
2018-07-27T15:41:37.985Z,101354.45
2018-07-27T15:44:11.635Z,101362.03
2018-07-27T15:47:02.798Z,101357.58
2018-07-27T15:56:10.645Z,101346.68
2018-07-27T16:01:39.115Z,101340.30
2018-07-27T16:07:49.560Z,101337.20
2018-07-27T16:11:05.477Z,101341.14
2018-07-27T16:13:56.681Z,101337.53
2018-07-27T16:17:02.188Z,101333.39
2018-07-27T16:19:51.106Z,101338.03
2018-07-27T16:22:28.540Z,101333.75
2018-07-27T16:25:10.414Z,101327.70
2018-07-27T16:31:16.800Z,101329.92
2018-07-27T16:39:38.186Z,101322.17
2018-07-27T16:57:21.485Z,101309.07
2018-07-27T16:59:53.827Z,101306.84
2018-07-27T17:05:24.042Z,101315.12
2018-07-27T17:07:55.788Z,101315.59
2018-07-27T17:10:47.335Z,101319.51
2018-07-27T17:13:27.699Z,101307.63
2018-07-27T17:16:12.007Z,101308.88
2018-07-27T17:18:55.337Z,101306.12
2018-07-27T17:21:31.985Z,101318.00
2018-07-27T17:24:29.202Z,101314.17
2018-07-27T17:30:13.054Z,101310.44
2018-07-27T17:32:54.995Z,101310.44
2018-07-27T17:35:53.973Z,101311.06
2018-07-27T17:38:36.725Z,101301.39
2018-07-27T17:41:14.595Z,101318.93
2018-07-27T17:43:51.404Z,101310.66
2018-07-27T17:46:35.719Z,101317.88
2018-07-27T17:49:16.131Z,101317.50
2018-07-27T17:51:53.625Z,101314.20
2018-07-27T17:57:17.671Z,101308.59
2018-07-27T17:59:55.787Z,101304.79
2018-07-27T18:02:42.509Z,101306.81
2018-07-27T18:05:17.819Z,101308.81
2018-07-27T18:07:58.686Z,101308.67
2018-07-27T18:10:32.028Z,101309.67
2018-07-27T18:13:06.200Z,101313.55
2018-07-27T18:15:55.994Z,101309.08
2018-07-27T18:19:03.983Z,101310.80
2018-07-27T18:21:42.547Z,101312.31
2018-07-27T18:30:18.240Z,101324.99
2018-07-27T18:32:52.198Z,101320.64
2018-07-27T18:35:34.750Z,101316.98
2018-07-27T18:38:21.789Z,101327.45
2018-07-27T18:41:25.364Z,101319.66
2018-07-27T18:44:37.515Z,101323.92
2018-07-27T18:47:18.901Z,101330.73
2018-07-27T18:50:24.617Z,101316.75
2018-07-27T18:53:08.217Z,101326.33
2018-07-27T18:55:56.949Z,101329.09
2018-07-27T18:59:22.147Z,101338.75
2018-07-27T19:02:11.148Z,101328.14
2018-07-27T19:04:58.894Z,101329.42
2018-07-27T19:07:30.937Z,101327.66
2018-07-27T19:10:05.282Z,101326.95
2018-07-27T19:15:46.419Z,101334.44
2018-07-27T19:18:25.057Z,101328.33
2018-07-27T19:21:02.891Z,101324.16
2018-07-27T19:23:41.203Z,101315.67
2018-07-27T19:26:15.872Z,101318.58
2018-07-27T19:28:48.686Z,101318.74
2018-07-27T19:31:26.273Z,101309.66
2018-07-27T19:34:06.320Z,101310.70
2018-07-27T19:36:39.835Z,101314.89
2018-07-27T19:42:06.309Z,101316.06
2018-07-27T19:44:52.038Z,101317.10
2018-07-27T19:47:32.004Z,101324.60
2018-07-27T19:50:11.053Z,101316.42
2018-07-27T19:53:07.873Z,101316.32
2018-07-27T19:55:38.946Z,101322.97
2018-07-27T19:58:20.432Z,101322.39
2018-07-27T20:04:14.954Z,101310.25
2018-07-27T20:06:57.719Z,101310.45
2018-07-27T20:09:37.709Z,101314.80
2018-07-27T20:12:32.300Z,101306.67
2018-07-27T20:15:08.269Z,101305.83
2018-07-27T20:17:41.237Z,101307.53
2018-07-27T20:29:26.075Z,101296.84
2018-07-27T20:35:56.941Z,101307.29
2018-07-27T20:39:56.240Z,101295.26
2018-07-27T20:46:59.171Z,101291.36
2018-07-27T20:55:35.634Z,101279.48
2018-07-27T20:58:30.157Z,101274.16
2018-07-27T21:01:12.573Z,101270.04
2018-07-27T21:04:03.252Z,101269.25
2018-07-27T21:06:36.696Z,101266.45
2018-07-27T21:09:18.280Z,101262.92
2018-07-27T21:11:56.692Z,101262.15
2018-07-27T21:15:45.093Z,101259.69
2018-07-27T21:19:48.732Z,101256.61
2018-07-27T21:25:36.376Z,101251.27
2018-07-27T21:32:07.844Z,101246.78
2018-07-27T21:35:18.090Z,101240.52
2018-07-27T21:38:32.884Z,101234.33
2018-07-27T21:41:08.315Z,101237.14
2018-07-27T22:00:44.196Z,101222.54
2018-07-27T22:17:55.351Z,101226.72
2018-07-27T22:25:59.233Z,101217.59
2018-07-27T22:33:03.904Z,101227.80
2018-07-27T22:35:57.957Z,101221.88
2018-07-27T23:03:48.938Z,101225.73
2018-07-27T23:07:06.494Z,101224.55
2018-07-27T23:14:28.617Z,101211.16
2018-07-27T23:17:08.848Z,101205.21
2018-07-27T23:27:43.923Z,101219.30
2018-07-27T23:30:59.747Z,101212.01
